Portada
METAR-TAF:

METAR-TAF

Aeroports :

Taixkent, Uzbekistan

latitud: 41-16N, longitud: 069-16E, altitud: 489 m

Observació

L'informe es va fer fa 38 minuts, a les 20:30 UTC
Vent 14 kt del Est/Nord-Est
Temperatura 8°C
Humitat 27%
Pressió 1012 hPa
Visibilitat 10 km o més
sense núvols per sota de 1500 mi sense presència de cumulonimbus.

METAR: UTTT 232030Z 07014KT CAVOK 08/M10 Q1012 R08R/CLRD70 NOSIG

Hora: 02:08 (21:08 UTC)

Pronòstic

L'informe es va fer fa 4 hores i 8 minuts, a les 17:00 UTC
Pronòstic vàlid del 23 a les 18 UTC al 24 a les 18 UTC
Vent 15 kt del Est/Nord-Est
Visibilitat: 7000 m
Temporalment
l' 23 a les 18 UTC al 23 a les 24 UTC
Vent 15 kt del Est amb ràfegues de 25 kt
Temporalment
l' 24 a les 00 UTC al 24 a les 06 UTC
Núvols disperses a una alçada de 5000 ft, Cumulonimbus.
Núvols disperses a una alçada de 10000 ft

TAF: UTTT 231700Z 2318/2418 07015KT 7000 NSC TEMPO 2318/2324 10015G25KT TEMPO 2400/2406 SCT050CB SCT100

Observacions i pronòstics meteorològics de més de 4000 aeroports (METAR i TAF).

Les estacions disponibles són els punts grocs i vermells al mapa.

Posi el ratolí al punt desitjat per veure el nom de l'estació.

Feu clic per veure les observacions i els pronòstics meteorològics.

Per canviar el mapa: feu clic els botons verds amb una creu de color negre per apropar; al botó verd amb un guió per allunyar la imatge; o en les fletxes verdes per a mapes adjacents.


METAR-TAF: